Terminal Aerodrome Forecast
Issued by NWS

Home | Current Version | Previous Version | Text Only | Print | Product List | Glossary On
Versions: 1 2 3 4 5 6 7 8 9 10 11 12 13 14 15 16 17 18 19 20 21
744
FTUS41 KBTV 130635 AAA
TAFMSS
TAF AMD
KMSS 130635Z 1307/1406 32011KT P6SM OVC040
     FM131100 30015KT P6SM BKN015
     FM132100 28015KT P6SM BKN025
     FM140500 29009KT P6SM BKN040=

USA.gov is the U.S. government's official web portal to all federal, state and local government web resources and services.